createdAt,value
2018-03-16T00:03:28.000Z,17.1
2018-03-16T00:13:28.000Z,17
2018-03-16T00:23:28.000Z,16.9
2018-03-16T00:33:28.000Z,16.9
2018-03-16T00:43:28.000Z,16.6
2018-03-16T00:53:28.000Z,16.7
2018-03-16T01:03:28.000Z,16.6
2018-03-16T01:13:28.000Z,16.3
2018-03-16T01:23:28.000Z,16.2
2018-03-16T01:33:28.000Z,16.4
2018-03-16T01:43:28.000Z,16.4
2018-03-16T01:53:28.000Z,16.3
2018-03-16T02:03:28.000Z,16.4
2018-03-16T02:13:28.000Z,16.3
2018-03-16T02:23:28.000Z,16.2
2018-03-16T02:33:28.000Z,16.1
2018-03-16T02:43:28.000Z,16
2018-03-16T02:53:28.000Z,16
2018-03-16T03:03:28.000Z,16
2018-03-16T03:13:28.000Z,15.9
2018-03-16T03:23:28.000Z,16.1
2018-03-16T03:33:28.000Z,15.9
2018-03-16T03:43:28.000Z,15.7
2018-03-16T03:53:28.000Z,15.8
2018-03-16T04:03:28.000Z,15.8
2018-03-16T04:13:28.000Z,15.8
2018-03-16T04:23:29.000Z,15.7
2018-03-16T04:33:29.000Z,15.7
2018-03-16T04:43:29.000Z,15.6
2018-03-16T04:53:29.000Z,15.6
2018-03-16T05:03:29.000Z,15.5
2018-03-16T05:13:29.000Z,15.5
2018-03-16T05:23:29.000Z,15.5
2018-03-16T05:33:29.000Z,15.4
2018-03-16T05:43:29.000Z,15.4
2018-03-16T05:53:29.000Z,15.2
2018-03-16T06:03:29.000Z,15.2
2018-03-16T06:13:29.000Z,15.3
2018-03-16T06:23:29.000Z,15.3
2018-03-16T06:33:29.000Z,15.3
2018-03-16T06:43:29.000Z,15.1
2018-03-16T06:53:29.000Z,15.2
2018-03-16T07:03:29.000Z,15.1
2018-03-16T07:13:29.000Z,15.1
2018-03-16T07:33:29.000Z,15.1
2018-03-16T07:43:29.000Z,15.2
2018-03-16T07:53:29.000Z,15.1
2018-03-16T08:03:29.000Z,15.1
2018-03-16T08:13:29.000Z,15.1
2018-03-16T08:23:29.000Z,15.7
2018-03-16T08:33:29.000Z,16.8
2018-03-16T08:43:29.000Z,17.6
2018-03-16T08:53:29.000Z,17.9
2018-03-16T09:03:29.000Z,18.2
2018-03-16T09:13:29.000Z,18.3
2018-03-16T09:23:29.000Z,18.4
2018-03-16T09:33:29.000Z,18.5
2018-03-16T09:43:29.000Z,18.6
2018-03-16T09:53:29.000Z,18.9
2018-03-16T10:03:29.000Z,18.9
2018-03-16T10:13:29.000Z,18.8
2018-03-16T10:23:29.000Z,18.9
2018-03-16T10:33:29.000Z,18.9
2018-03-16T10:43:29.000Z,19
2018-03-16T10:53:29.000Z,19.2
2018-03-16T11:03:29.000Z,18.9
2018-03-16T11:13:29.000Z,19.2
2018-03-16T11:23:29.000Z,19.1
2018-03-16T11:33:30.000Z,19.2
2018-03-16T11:43:30.000Z,19.2
2018-03-16T11:53:30.000Z,19.2
2018-03-16T12:03:30.000Z,19.3
2018-03-16T12:13:30.000Z,19.3
2018-03-16T12:23:30.000Z,19.3
2018-03-16T12:33:31.000Z,19.4
2018-03-16T12:43:30.000Z,19.6
2018-03-16T12:53:30.000Z,19.5
2018-03-16T13:03:30.000Z,19.5
2018-03-16T13:13:30.000Z,19.5
2018-03-16T13:23:30.000Z,19.4
2018-03-16T13:33:30.000Z,19.6
2018-03-16T13:43:30.000Z,19.5
2018-03-16T13:53:30.000Z,19.5
2018-03-16T14:03:30.000Z,19.5
2018-03-16T14:13:30.000Z,19.5
2018-03-16T14:23:30.000Z,19.6
2018-03-16T14:33:30.000Z,19.6
2018-03-16T14:43:30.000Z,19.6
2018-03-16T14:53:30.000Z,19.6
2018-03-16T15:03:30.000Z,19.6
2018-03-16T15:13:30.000Z,19.6
2018-03-16T15:23:31.000Z,19.7
2018-03-16T15:33:30.000Z,19.6
2018-03-16T15:43:30.000Z,19.7
2018-03-16T15:53:30.000Z,19.6
2018-03-16T16:03:31.000Z,19.7
2018-03-16T16:13:30.000Z,19.7
2018-03-16T16:23:31.000Z,19.6
2018-03-16T16:33:30.000Z,19.5
2018-03-16T16:43:31.000Z,19.5
2018-03-16T16:53:30.000Z,19.6
2018-03-16T17:03:30.000Z,19.7
2018-03-16T17:13:34.000Z,19.7
2018-03-16T17:23:30.000Z,19.8
2018-03-16T17:33:30.000Z,19.7
2018-03-16T17:43:31.000Z,19.6
2018-03-16T17:53:30.000Z,19.6
2018-03-16T18:03:31.000Z,19.6
2018-03-16T18:13:30.000Z,19.7
2018-03-16T18:23:30.000Z,19.7
2018-03-16T18:33:31.000Z,19.6
2018-03-16T18:43:31.000Z,19.6
2018-03-16T18:53:31.000Z,19.5
2018-03-16T19:03:31.000Z,19.5
2018-03-16T19:13:31.000Z,19.6
2018-03-16T19:23:31.000Z,19.8
2018-03-16T19:33:31.000Z,19.7
2018-03-16T19:43:31.000Z,19.7
2018-03-16T19:53:31.000Z,19.7
2018-03-16T20:03:32.000Z,19.7
2018-03-16T20:13:31.000Z,19.7
2018-03-16T20:23:32.000Z,19.7
2018-03-16T20:33:31.000Z,19.7
2018-03-16T20:43:31.000Z,19.7
2018-03-16T20:53:31.000Z,19.7
2018-03-16T21:03:32.000Z,19.7
2018-03-16T21:23:33.000Z,19.7
2018-03-16T21:33:31.000Z,19.7
2018-03-16T21:43:31.000Z,19.4
2018-03-16T21:53:32.000Z,17.3
2018-03-16T22:03:31.000Z,16.4
2018-03-16T22:13:33.000Z,16
2018-03-16T22:23:32.000Z,15.7
2018-03-16T22:33:31.000Z,15.4
2018-03-16T22:43:31.000Z,15.3
2018-03-16T22:53:31.000Z,15.1
2018-03-16T23:03:31.000Z,14.9
2018-03-16T23:13:32.000Z,14.8
2018-03-16T23:23:31.000Z,14.5
2018-03-16T23:33:31.000Z,14.3
2018-03-16T23:43:31.000Z,14.4
2018-03-16T23:53:31.000Z,14.2
